createdAt,value
2023-02-22T00:00:48.111Z,2.75
2023-02-22T00:03:24.945Z,2.73
2023-02-22T00:06:02.549Z,2.69
2023-02-22T00:08:31.913Z,2.65
2023-02-22T00:10:59.550Z,2.65
2023-02-22T00:13:29.496Z,2.65
2023-02-22T00:15:57.855Z,2.65
2023-02-22T00:18:27.776Z,2.65
2023-02-22T00:20:55.508Z,2.69
2023-02-22T00:23:25.360Z,2.69
2023-02-22T00:25:51.742Z,2.69
2023-02-22T00:28:19.354Z,2.69
2023-02-22T00:30:48.127Z,2.66
2023-02-22T00:33:15.631Z,2.66
2023-02-22T00:35:45.852Z,2.57
2023-02-22T00:38:16.947Z,2.41
2023-02-22T00:40:45.613Z,2.43
2023-02-22T00:43:12.426Z,2.36
2023-02-22T00:45:38.922Z,2.22
2023-02-22T00:48:06.843Z,2.21
2023-02-22T00:50:33.574Z,2.20
2023-02-22T00:53:01.728Z,2.20
2023-02-22T00:55:31.326Z,2.18
2023-02-22T00:57:58.752Z,2.14
2023-02-22T01:00:31.041Z,2.03
2023-02-22T01:02:58.368Z,1.99
2023-02-22T01:05:27.991Z,1.95
2023-02-22T01:07:56.000Z,1.90
2023-02-22T01:10:25.001Z,1.87
2023-02-22T01:12:52.260Z,1.79
2023-02-22T01:15:25.104Z,1.80
2023-02-22T01:17:53.480Z,1.82
2023-02-22T01:20:22.787Z,1.78
2023-02-22T01:22:58.138Z,1.73
2023-02-22T01:25:28.199Z,1.77
2023-02-22T01:27:55.971Z,1.73
2023-02-22T01:30:24.716Z,1.74
2023-02-22T01:32:51.186Z,1.69
2023-02-22T01:35:23.672Z,1.77
2023-02-22T01:37:50.507Z,1.74
2023-02-22T01:40:22.992Z,1.64
2023-02-22T01:42:59.718Z,1.61
2023-02-22T01:45:35.258Z,1.77
2023-02-22T01:48:24.912Z,1.87
2023-02-22T01:51:01.178Z,1.87
2023-02-22T01:53:37.140Z,1.95
2023-02-22T01:56:04.725Z,2.04
2023-02-22T01:58:35.070Z,2.01
2023-02-22T02:01:01.742Z,2.02
2023-02-22T02:03:35.717Z,2.04
2023-02-22T02:06:06.217Z,2.01
2023-02-22T02:08:42.979Z,1.99
2023-02-22T02:11:09.876Z,2.02
2023-02-22T02:13:36.907Z,2.05
2023-02-22T02:16:03.784Z,2.05
2023-02-22T02:18:32.531Z,2.12
2023-02-22T02:21:08.280Z,2.08
2023-02-22T02:24:17.225Z,1.95
2023-02-22T02:27:02.962Z,1.84
2023-02-22T02:30:04.369Z,1.77
2023-02-22T02:32:45.398Z,1.65
2023-02-22T02:35:30.087Z,1.63
2023-02-22T02:38:05.183Z,1.58
2023-02-22T02:40:52.399Z,1.71
2023-02-22T02:43:53.486Z,1.76
2023-02-22T02:46:50.408Z,1.79
2023-02-22T02:49:22.363Z,1.76
2023-02-22T02:51:54.636Z,1.75
2023-02-22T02:54:22.533Z,1.77
2023-02-22T02:56:50.724Z,1.83
2023-02-22T02:59:32.473Z,2.01
2023-02-22T03:02:08.280Z,2.53
2023-02-22T03:04:45.260Z,2.89
2023-02-22T03:07:26.874Z,2.89
2023-02-22T03:10:07.711Z,3.04
2023-02-22T03:12:49.676Z,3.16
2023-02-22T03:15:59.418Z,3.23
2023-02-22T03:18:34.379Z,3.14
2023-02-22T03:21:25.861Z,3.03
2023-02-22T03:24:07.051Z,2.98
2023-02-22T03:26:45.553Z,3.19
2023-02-22T03:29:16.034Z,3.35
2023-02-22T03:31:50.778Z,3.47
2023-02-22T03:34:22.943Z,3.47
2023-02-22T03:36:56.794Z,3.55
2023-02-22T03:39:30.895Z,3.49
2023-02-22T03:42:04.623Z,3.33
2023-02-22T03:44:37.833Z,2.98
2023-02-22T03:47:10.996Z,2.94
2023-02-22T03:49:43.093Z,2.70
2023-02-22T03:52:10.289Z,2.60
2023-02-22T03:54:36.885Z,2.33
2023-02-22T03:57:16.964Z,2.20
2023-02-22T03:59:44.086Z,2.36
2023-02-22T04:02:10.770Z,2.19
2023-02-22T04:04:37.400Z,2.18
2023-02-22T04:07:05.022Z,2.03
2023-02-22T04:09:31.413Z,2.07
2023-02-22T04:11:58.537Z,1.83
2023-02-22T04:14:24.949Z,1.78
2023-02-22T04:16:52.858Z,1.72
2023-02-22T04:19:19.289Z,1.68
2023-02-22T04:21:46.440Z,1.61
2023-02-22T04:24:13.447Z,1.57
2023-02-22T04:26:40.010Z,1.60
2023-02-22T04:29:06.809Z,1.53
2023-02-22T04:31:36.018Z,1.52
2023-02-22T04:34:03.522Z,1.52
2023-02-22T04:36:31.814Z,1.54
2023-02-22T04:38:59.308Z,1.50
2023-02-22T04:41:26.477Z,1.47
2023-02-22T04:43:53.061Z,1.43
2023-02-22T04:46:21.209Z,1.36
2023-02-22T04:48:47.747Z,1.34
2023-02-22T04:51:15.111Z,1.37
2023-02-22T04:53:41.752Z,1.39
2023-02-22T04:56:08.391Z,1.37
2023-02-22T04:58:34.780Z,1.44
2023-02-22T05:01:01.232Z,1.50
2023-02-22T05:03:27.756Z,1.35
2023-02-22T05:05:54.232Z,1.36
2023-02-22T05:08:20.853Z,1.44
2023-02-22T05:10:47.263Z,1.47
2023-02-22T05:13:13.709Z,1.54
2023-02-22T05:15:40.098Z,1.69
2023-02-22T05:18:06.822Z,1.59
2023-02-22T05:20:34.779Z,1.36
2023-02-22T05:23:03.117Z,1.27
2023-02-22T05:25:29.652Z,1.17
2023-02-22T05:27:59.492Z,1.30
2023-02-22T05:30:29.867Z,1.43
2023-02-22T05:32:57.241Z,1.49
2023-02-22T05:35:23.726Z,1.60
2023-02-22T05:37:50.802Z,1.48
2023-02-22T05:40:20.113Z,1.60
2023-02-22T05:42:49.007Z,1.71
2023-02-22T05:45:18.747Z,1.76
2023-02-22T05:47:45.980Z,1.82
2023-02-22T05:50:12.906Z,1.97
2023-02-22T05:52:40.650Z,2.01
2023-02-22T05:55:08.988Z,2.00
2023-02-22T05:57:35.576Z,2.00
2023-02-22T06:00:05.201Z,1.94
2023-02-22T06:02:31.583Z,1.94
2023-02-22T06:04:58.194Z,1.96
2023-02-22T06:07:24.602Z,2.00
2023-02-22T06:09:51.039Z,2.08
2023-02-22T06:12:17.919Z,2.24
2023-02-22T06:14:46.434Z,2.52
2023-02-22T06:17:15.312Z,2.52
2023-02-22T06:19:41.807Z,2.73
2023-02-22T06:22:09.202Z,2.71
2023-02-22T06:24:39.153Z,2.79
2023-02-22T06:27:05.688Z,2.89
2023-02-22T06:29:32.733Z,2.71
2023-02-22T06:31:59.461Z,2.75
2023-02-22T06:34:26.035Z,2.76
2023-02-22T06:36:52.427Z,2.79
2023-02-22T06:39:19.001Z,2.84
2023-02-22T06:41:46.947Z,2.93
2023-02-22T06:44:15.336Z,2.86
2023-02-22T06:46:48.662Z,2.85
2023-02-22T06:49:15.180Z,2.80
2023-02-22T06:51:41.764Z,2.80
2023-02-22T06:54:08.639Z,2.76
2023-02-22T06:56:35.171Z,2.68
2023-02-22T06:59:03.032Z,2.58
2023-02-22T07:01:29.480Z,2.51
2023-02-22T07:03:56.110Z,2.34
2023-02-22T07:06:23.332Z,2.28
2023-02-22T07:08:49.828Z,2.44
2023-02-22T07:11:17.952Z,2.39
2023-02-22T07:13:44.566Z,2.50
2023-02-22T07:16:12.441Z,2.66
2023-02-22T07:18:39.030Z,2.81
2023-02-22T07:21:06.212Z,2.91
2023-02-22T07:23:33.227Z,3.06
2023-02-22T07:26:01.409Z,3.22
2023-02-22T07:28:28.066Z,3.63
2023-02-22T07:30:54.628Z,3.85
2023-02-22T07:33:21.155Z,4.08
2023-02-22T07:35:49.784Z,4.16
2023-02-22T07:38:18.263Z,4.40
2023-02-22T07:40:45.768Z,4.61
2023-02-22T07:43:18.090Z,4.78
2023-02-22T07:45:45.197Z,4.86
2023-02-22T07:48:12.590Z,4.76
2023-02-22T07:50:40.461Z,4.81
2023-02-22T07:53:12.091Z,4.92
2023-02-22T07:55:38.560Z,5.03
2023-02-22T07:58:08.106Z,5.18
2023-02-22T08:00:39.603Z,5.26
2023-02-22T08:03:11.509Z,5.44
2023-02-22T08:05:40.955Z,5.59
2023-02-22T08:08:08.511Z,5.69
2023-02-22T08:10:35.629Z,5.76
2023-02-22T08:13:04.197Z,5.86
2023-02-22T08:15:34.920Z,5.96
2023-02-22T08:18:02.958Z,6.07
2023-02-22T08:20:30.042Z,6.08
2023-02-22T08:22:57.540Z,6.17
2023-02-22T08:25:29.228Z,6.26
2023-02-22T08:28:23.772Z,6.30
2023-02-22T08:30:51.099Z,6.45
2023-02-22T08:33:19.569Z,6.46
2023-02-22T08:35:51.851Z,6.56
2023-02-22T08:38:24.697Z,6.62
2023-02-22T08:40:52.137Z,6.66
2023-02-22T08:43:20.104Z,6.70
2023-02-22T08:45:47.386Z,6.72
2023-02-22T08:48:15.846Z,6.81
2023-02-22T08:50:44.180Z,6.90
2023-02-22T08:53:13.471Z,6.92
2023-02-22T08:55:41.708Z,7.00
2023-02-22T08:58:12.105Z,7.12
2023-02-22T09:00:40.592Z,7.21
2023-02-22T09:03:10.116Z,7.25
2023-02-22T09:05:36.920Z,7.42
2023-02-22T09:08:03.897Z,7.45
2023-02-22T09:10:33.328Z,7.51
2023-02-22T09:13:01.085Z,7.60
2023-02-22T09:15:28.717Z,7.66
2023-02-22T09:17:55.774Z,7.76
2023-02-22T09:20:24.642Z,7.77
2023-02-22T09:22:51.879Z,7.77
2023-02-22T09:25:20.618Z,7.78
2023-02-22T09:27:52.019Z,7.84
2023-02-22T09:30:25.572Z,7.91
2023-02-22T09:32:58.268Z,7.87
2023-02-22T09:35:27.154Z,7.98
2023-02-22T09:37:58.693Z,8.12
2023-02-22T09:40:30.080Z,8.20
2023-02-22T09:43:10.925Z,8.21
2023-02-22T09:46:19.898Z,8.26
2023-02-22T09:48:57.980Z,8.34
2023-02-22T09:51:30.024Z,8.45
2023-02-22T09:54:00.907Z,8.52
2023-02-22T09:56:30.313Z,8.70
2023-02-22T09:59:03.734Z,8.83
2023-02-22T10:01:40.660Z,9.05
2023-02-22T10:04:23.024Z,9.10
2023-02-22T10:07:05.797Z,9.23
2023-02-22T10:09:38.051Z,9.34
2023-02-22T10:12:21.010Z,9.44
2023-02-22T10:15:22.249Z,9.48
2023-02-22T10:18:10.562Z,9.64
2023-02-22T10:21:07.581Z,9.77
2023-02-22T10:23:57.299Z,9.92
2023-02-22T10:26:32.329Z,10.05
2023-02-22T10:29:22.011Z,10.12
2023-02-22T10:32:03.404Z,10.18
2023-02-22T10:34:46.429Z,10.34
2023-02-22T10:37:34.419Z,10.34
2023-02-22T10:40:18.699Z,10.38
2023-02-22T10:42:45.213Z,10.41
2023-02-22T10:45:35.800Z,10.43
2023-02-22T10:48:13.101Z,10.42
2023-02-22T10:50:42.395Z,10.56
2023-02-22T10:53:10.808Z,10.62
2023-02-22T10:56:06.005Z,10.78
2023-02-22T10:58:43.053Z,10.80
2023-02-22T11:01:29.301Z,10.72
2023-02-22T11:04:11.440Z,10.76
2023-02-22T11:06:39.610Z,10.81
2023-02-22T11:09:17.822Z,10.94
2023-02-22T11:11:47.041Z,11.00
2023-02-22T11:14:25.968Z,11.00
2023-02-22T11:16:58.125Z,11.10
2023-02-22T11:19:33.184Z,11.07
2023-02-22T11:22:14.675Z,11.23
2023-02-22T11:24:57.646Z,11.33
2023-02-22T11:27:38.144Z,11.40
2023-02-22T11:30:32.371Z,11.53
2023-02-22T11:33:16.050Z,11.45
2023-02-22T11:35:56.254Z,11.50
2023-02-22T11:38:25.712Z,11.50
2023-02-22T11:41:16.824Z,11.51
2023-02-22T11:43:48.397Z,11.50
2023-02-22T11:46:20.336Z,11.57
2023-02-22T11:49:06.399Z,11.67
2023-02-22T11:52:01.099Z,11.74
2023-02-22T11:54:39.842Z,11.75
2023-02-22T11:57:22.008Z,11.84
2023-02-22T12:00:12.000Z,11.78
2023-02-22T12:02:59.887Z,11.78
2023-02-22T12:05:38.488Z,11.82
2023-02-22T12:08:20.430Z,11.95
2023-02-22T12:11:03.339Z,12.06
2023-02-22T12:13:46.933Z,12.12
2023-02-22T12:16:28.755Z,12.23
2023-02-22T12:19:30.624Z,12.33
2023-02-22T12:22:07.922Z,12.28
2023-02-22T12:24:40.898Z,12.21
2023-02-22T12:27:18.150Z,12.33
2023-02-22T12:29:54.713Z,12.40
2023-02-22T12:32:47.112Z,12.31
2023-02-22T12:35:19.645Z,12.38
2023-02-22T12:38:12.579Z,12.46
2023-02-22T12:41:04.009Z,12.62
2023-02-22T12:43:39.007Z,12.68
2023-02-22T12:46:12.318Z,12.84
2023-02-22T12:48:54.260Z,12.85
2023-02-22T12:51:34.495Z,13.05
2023-02-22T12:54:38.009Z,13.16
2023-02-22T12:57:21.851Z,13.10
2023-02-22T12:59:53.734Z,13.12
2023-02-22T13:02:34.385Z,13.09
2023-02-22T13:05:01.748Z,12.99
2023-02-22T13:07:34.539Z,13.00
2023-02-22T13:10:27.045Z,13.08
2023-02-22T13:13:02.928Z,13.06
2023-02-22T13:15:44.546Z,12.99
2023-02-22T13:18:17.292Z,13.04
2023-02-22T13:21:06.447Z,13.08
2023-02-22T13:23:42.227Z,12.93
2023-02-22T13:26:17.150Z,12.81
2023-02-22T13:28:50.980Z,12.83
2023-02-22T13:31:51.897Z,12.85
2023-02-22T13:34:43.544Z,13.03
2023-02-22T13:37:47.786Z,13.02
2023-02-22T13:40:38.955Z,13.10
2023-02-22T13:43:17.462Z,13.11
2023-02-22T13:46:12.972Z,13.05
2023-02-22T13:48:48.858Z,13.06
2023-02-22T13:51:39.236Z,13.17
2023-02-22T13:54:20.946Z,13.13
2023-02-22T13:56:49.978Z,13.14
2023-02-22T13:59:27.301Z,13.14
2023-02-22T14:01:54.977Z,13.11
2023-02-22T14:04:27.520Z,13.20
2023-02-22T14:07:00.632Z,13.30
2023-02-22T14:09:51.256Z,13.41
2023-02-22T14:12:36.548Z,13.56
2023-02-22T14:15:28.763Z,13.61
2023-02-22T14:18:02.632Z,13.66
2023-02-22T14:20:36.402Z,13.74
2023-02-22T14:23:25.943Z,13.78
2023-02-22T14:25:52.469Z,13.88
2023-02-22T14:28:39.407Z,13.97
2023-02-22T14:31:34.530Z,14.06
2023-02-22T14:34:10.125Z,14.09
2023-02-22T14:36:55.071Z,14.12
2023-02-22T14:39:32.111Z,13.99
2023-02-22T14:42:06.284Z,14.02
2023-02-22T14:44:43.901Z,14.03
2023-02-22T14:47:20.874Z,13.96
2023-02-22T14:49:51.205Z,13.85
2023-02-22T14:52:27.029Z,13.83
2023-02-22T14:55:04.583Z,13.75
2023-02-22T14:57:38.882Z,13.82
2023-02-22T15:00:20.312Z,13.62
2023-02-22T15:02:57.244Z,13.55
2023-02-22T15:05:24.003Z,13.49
2023-02-22T15:07:59.831Z,13.56
2023-02-22T15:10:43.106Z,13.49
2023-02-22T15:13:19.355Z,13.45
2023-02-22T15:16:00.612Z,13.45
2023-02-22T15:18:39.941Z,13.41
2023-02-22T15:21:13.501Z,13.32
2023-02-22T15:23:41.659Z,13.24
2023-02-22T15:26:35.793Z,13.12
2023-02-22T15:29:07.624Z,13.10
2023-02-22T15:31:37.125Z,13.02
2023-02-22T15:34:24.310Z,12.90
2023-02-22T15:36:57.601Z,12.84
2023-02-22T15:39:26.954Z,12.82
2023-02-22T15:42:08.433Z,12.81
2023-02-22T15:44:40.424Z,12.67
2023-02-22T15:47:18.436Z,12.57
2023-02-22T15:49:45.499Z,12.52
2023-02-22T15:52:25.851Z,12.41
2023-02-22T15:54:53.602Z,12.36
2023-02-22T15:57:25.324Z,12.26
2023-02-22T15:59:56.015Z,12.20
2023-02-22T16:02:39.372Z,12.14
2023-02-22T16:05:10.218Z,12.03
2023-02-22T16:07:42.013Z,11.87
2023-02-22T16:10:23.091Z,11.88
2023-02-22T16:12:49.770Z,11.70
2023-02-22T16:15:18.828Z,11.67
2023-02-22T16:18:00.914Z,11.63
2023-02-22T16:20:29.405Z,11.49
2023-02-22T16:22:57.951Z,11.41
2023-02-22T16:25:32.878Z,11.34
2023-02-22T16:28:03.454Z,11.30
2023-02-22T16:30:32.763Z,11.32
2023-02-22T16:33:00.796Z,11.22
2023-02-22T16:35:29.158Z,11.27
2023-02-22T16:37:57.524Z,11.12
2023-02-22T16:40:45.833Z,11.04
2023-02-22T16:43:15.026Z,10.95
2023-02-22T16:45:43.045Z,10.89
2023-02-22T16:48:21.669Z,10.93
2023-02-22T16:50:50.942Z,10.77
2023-02-22T16:53:21.861Z,10.77
2023-02-22T16:55:50.371Z,10.74
2023-02-22T16:58:19.372Z,10.75
2023-02-22T17:00:46.338Z,10.78
2023-02-22T17:03:18.221Z,10.73
2023-02-22T17:05:44.874Z,10.62
2023-02-22T17:08:11.701Z,10.54
2023-02-22T17:10:38.467Z,10.55
2023-02-22T17:13:21.827Z,10.47
2023-02-22T17:15:49.721Z,10.34
2023-02-22T17:18:22.844Z,10.26
2023-02-22T17:20:53.244Z,10.25
2023-02-22T17:23:21.767Z,10.27
2023-02-22T17:26:00.143Z,10.19
2023-02-22T17:28:27.772Z,10.10
2023-02-22T17:31:00.386Z,10.08
2023-02-22T17:33:30.782Z,10.01
2023-02-22T17:35:59.526Z,10.01
2023-02-22T17:38:29.277Z,9.94
2023-02-22T17:40:57.470Z,9.85
2023-02-22T17:43:25.453Z,9.92
2023-02-22T17:45:54.044Z,9.98
2023-02-22T17:48:22.854Z,9.93
2023-02-22T17:50:50.458Z,9.93
2023-02-22T17:53:21.430Z,9.90
2023-02-22T17:55:48.684Z,9.85
2023-02-22T17:58:15.599Z,9.80
2023-02-22T18:00:46.378Z,9.57
2023-02-22T18:03:16.610Z,9.41
2023-02-22T18:05:46.689Z,9.38
2023-02-22T18:08:13.657Z,9.35
2023-02-22T18:10:42.493Z,9.34
2023-02-22T18:13:09.781Z,9.26
2023-02-22T18:15:40.249Z,9.25
2023-02-22T18:18:06.695Z,9.26
2023-02-22T18:20:40.400Z,9.30
2023-02-22T18:23:08.628Z,9.36
2023-02-22T18:25:37.325Z,9.35
2023-02-22T18:28:08.863Z,9.27
2023-02-22T18:30:38.162Z,9.20
2023-02-22T18:33:04.671Z,9.19
2023-02-22T18:35:32.035Z,9.13
2023-02-22T18:37:58.545Z,9.13
2023-02-22T18:40:24.953Z,9.15
2023-02-22T18:42:51.492Z,9.08
2023-02-22T18:45:18.288Z,9.05
2023-02-22T18:47:45.495Z,9.00
2023-02-22T18:50:13.484Z,8.97
2023-02-22T18:52:45.959Z,8.90
2023-02-22T18:55:17.863Z,8.92
2023-02-22T18:57:45.802Z,8.86
2023-02-22T19:00:15.856Z,8.79
2023-02-22T19:02:45.585Z,8.75
2023-02-22T19:05:13.569Z,8.71
2023-02-22T19:07:40.022Z,8.68
2023-02-22T19:10:07.480Z,8.67
2023-02-22T19:12:34.157Z,8.66
2023-02-22T19:15:00.936Z,8.66
2023-02-22T19:17:29.259Z,8.64
2023-02-22T19:19:56.001Z,8.64
2023-02-22T19:22:25.876Z,8.71
2023-02-22T19:24:56.228Z,8.73
2023-02-22T19:27:22.833Z,8.77
2023-02-22T19:29:50.577Z,8.77
2023-02-22T19:32:17.366Z,8.77
2023-02-22T19:34:44.499Z,8.77
2023-02-22T19:37:12.912Z,8.82
2023-02-22T19:39:41.772Z,8.83
2023-02-22T19:42:09.928Z,8.81
2023-02-22T19:44:37.652Z,8.86
2023-02-22T19:47:08.955Z,8.90
2023-02-22T19:49:40.932Z,8.94
2023-02-22T19:52:07.742Z,8.94
2023-02-22T19:54:34.391Z,8.98
2023-02-22T19:57:01.048Z,9.02
2023-02-22T19:59:28.501Z,9.03
2023-02-22T20:01:55.989Z,9.03
2023-02-22T20:04:23.847Z,8.98
2023-02-22T20:06:54.417Z,8.93
2023-02-22T20:09:29.986Z,8.88
2023-02-22T20:11:57.356Z,8.79
2023-02-22T20:14:28.256Z,8.77
2023-02-22T20:16:56.472Z,8.70
2023-02-22T20:19:23.028Z,8.67
2023-02-22T20:21:50.319Z,8.62
2023-02-22T20:24:20.790Z,8.58
2023-02-22T20:26:48.050Z,8.64
2023-02-22T20:29:15.605Z,8.68
2023-02-22T20:31:42.993Z,8.68
2023-02-22T20:34:10.626Z,8.65
2023-02-22T20:36:39.607Z,8.61
2023-02-22T20:39:07.876Z,8.62
2023-02-22T20:41:35.759Z,8.64
2023-02-22T20:44:03.431Z,8.67
2023-02-22T20:46:32.033Z,8.66
2023-02-22T20:49:00.499Z,8.69
2023-02-22T20:51:29.135Z,8.72
2023-02-22T20:53:59.690Z,8.72
2023-02-22T20:56:29.275Z,8.73
2023-02-22T20:59:01.896Z,8.70
2023-02-22T21:01:29.351Z,8.69
2023-02-22T21:04:03.217Z,8.71
2023-02-22T21:06:30.838Z,8.75
2023-02-22T21:09:00.271Z,8.82
2023-02-22T21:11:30.365Z,8.88
2023-02-22T21:13:57.660Z,8.83
2023-02-22T21:16:30.031Z,8.79
2023-02-22T21:18:59.363Z,8.77
2023-02-22T21:21:26.517Z,8.84
2023-02-22T21:23:55.232Z,8.98
2023-02-22T21:26:24.626Z,8.99
2023-02-22T21:28:52.276Z,8.99
2023-02-22T21:31:24.360Z,8.98
2023-02-22T21:33:55.261Z,9.06
2023-02-22T21:36:25.312Z,8.94
2023-02-22T21:38:56.870Z,8.99
2023-02-22T21:41:27.572Z,8.93
2023-02-22T21:43:55.519Z,8.92
2023-02-22T21:46:22.937Z,8.98
2023-02-22T21:48:49.794Z,8.95
2023-02-22T21:51:23.244Z,8.93
2023-02-22T21:53:54.738Z,8.98
2023-02-22T21:56:28.772Z,8.91
2023-02-22T21:59:00.613Z,8.83
2023-02-22T22:01:28.566Z,8.76
2023-02-22T22:03:59.407Z,8.75
2023-02-22T22:06:27.826Z,8.72
2023-02-22T22:08:55.278Z,8.72
2023-02-22T22:11:22.202Z,8.69
2023-02-22T22:13:49.142Z,8.67
2023-02-22T22:16:18.327Z,8.66
2023-02-22T22:18:46.731Z,8.73
2023-02-22T22:21:20.658Z,8.74
2023-02-22T22:23:47.604Z,8.78
2023-02-22T22:26:17.321Z,8.88
2023-02-22T22:28:46.768Z,8.91
2023-02-22T22:31:14.581Z,8.87
2023-02-22T22:33:42.900Z,8.74
2023-02-22T22:36:10.663Z,8.72
2023-02-22T22:38:40.354Z,8.68
2023-02-22T22:41:09.374Z,8.64
2023-02-22T22:43:37.246Z,8.61
2023-02-22T22:46:05.836Z,8.57
2023-02-22T22:48:35.954Z,8.56
2023-02-22T22:51:06.549Z,8.55
2023-02-22T22:53:34.668Z,8.57
2023-02-22T22:56:15.718Z,8.56
2023-02-22T22:58:47.244Z,8.57
2023-02-22T23:01:20.048Z,8.57
2023-02-22T23:03:55.432Z,8.58
2023-02-22T23:06:28.835Z,8.57
2023-02-22T23:09:11.638Z,8.53
2023-02-22T23:11:47.251Z,8.53
2023-02-22T23:14:19.373Z,8.55
2023-02-22T23:16:47.352Z,8.51
2023-02-22T23:19:15.705Z,8.48
2023-02-22T23:21:45.777Z,8.45
2023-02-22T23:24:19.263Z,8.43
2023-02-22T23:26:48.821Z,8.39
2023-02-22T23:29:17.944Z,8.37
2023-02-22T23:31:47.742Z,8.39
2023-02-22T23:34:16.106Z,8.37
2023-02-22T23:36:45.762Z,8.36
2023-02-22T23:39:14.120Z,8.37
2023-02-22T23:41:42.406Z,8.37
2023-02-22T23:44:17.570Z,8.37
2023-02-22T23:46:47.853Z,8.37
2023-02-22T23:49:20.013Z,8.33
2023-02-22T23:51:47.090Z,8.31
2023-02-22T23:54:19.247Z,8.31
2023-02-22T23:57:02.737Z,8.30
2023-02-22T23:59:30.743Z,8.32
